Time;durP1;ratioP1;P1;durP2;ratioP2;P2;SDS_P1;SDS_P2;PMS_P1;PMS_P2;Temp;Humidity;BMP_temperature;BMP_pressure;BME280_temperature;BME280_humidity;BME280_pressure;Samples;Min_cycle;Max_cycle;Signal;HPM_P1;HPM_P2
2023/09/04 00:00:05;;;;;;;55.60;50.92;;;16.80;99.90;;;;;;5029286;28;20094;-61
2023/09/04 00:02:31;;;;;;;54.22;49.53;;;16.90;99.90;;;;;;5029706;28;20045;-63
2023/09/04 00:04:56;;;;;;;54.88;50.35;;;16.90;99.90;;;;;;5029520;28;20037;-61
2023/09/04 00:07:22;;;;;;;53.45;48.95;;;17.40;99.90;;;;;;5028682;28;20038;-61
2023/09/04 00:09:47;;;;;;;52.63;48.25;;;17.40;99.90;;;;;;5020998;28;20064;-65
2023/09/04 00:12:13;;;;;;;53.80;49.10;;;17.40;99.90;;;;;;5029146;28;20037;-65
2023/09/04 00:14:39;;;;;;;53.30;49.00;;;16.90;99.90;;;;;;5034606;28;20743;-65
2023/09/04 00:17:04;;;;;;;56.65;51.75;;;16.90;99.90;;;;;;5031000;28;20064;-64
2023/09/04 00:19:32;;;;;;;54.30;49.67;;;17.20;99.90;;;;;;5040225;28;20076;-64
2023/09/04 00:21:58;;;;;;;52.42;47.88;;;17.30;99.90;;;;;;5033178;28;20034;-65
2023/09/04 00:24:23;;;;;;;54.22;49.58;;;17.50;99.90;;;;;;5033207;28;20040;-64
2023/09/04 00:26:49;;;;;;;53.67;49.38;;;17.20;99.90;;;;;;5024462;28;20409;-65
2023/09/04 00:29:15;;;;;;;51.55;47.13;;;17.00;99.90;;;;;;5024198;28;20470;-64
2023/09/04 00:31:40;;;;;;;52.47;47.95;;;16.80;99.90;;;;;;5033038;28;20104;-65
2023/09/04 00:34:06;;;;;;;49.22;45.22;;;17.30;99.90;;;;;;5034230;28;20040;-65
2023/09/04 00:36:31;;;;;;;54.38;49.75;;;17.40;99.90;;;;;;5031656;28;20037;-65
2023/09/04 00:38:57;;;;;;;55.13;49.60;;;17.10;99.90;;;;;;5032175;28;20046;-65
2023/09/04 00:41:22;;;;;;;53.90;49.22;;;16.80;99.90;;;;;;5032822;28;20033;-64
2023/09/04 00:43:48;;;;;;;53.70;48.42;;;16.90;99.90;;;;;;5034243;28;20033;-65
2023/09/04 00:46:14;;;;;;;54.65;49.67;;;16.90;99.90;;;;;;5029270;28;20569;-65
2023/09/04 00:48:40;;;;;;;53.67;49.17;;;16.70;99.90;;;;;;5032005;28;20043;-65
2023/09/04 00:51:06;;;;;;;53.33;49.00;;;17.50;99.90;;;;;;5032484;28;20087;-65
2023/09/04 00:53:33;;;;;;;54.33;49.67;;;17.50;99.90;;;;;;5030777;28;20037;-65
2023/09/04 00:56:02;;;;;;;51.22;47.03;;;17.60;99.90;;;;;;5031439;28;20029;-65
2023/09/04 00:58:28;;;;;;;52.67;48.15;;;16.90;99.90;;;;;;5031075;28;20056;-64
2023/09/04 01:00:54;;;;;;;54.78;49.72;;;17.60;99.90;;;;;;5032077;28;20053;-65
2023/09/04 01:03:20;;;;;;;52.30;47.60;;;17.40;99.90;;;;;;5038166;28;20124;-64
2023/09/04 01:05:46;;;;;;;53.00;48.50;;;17.30;99.90;;;;;;5029459;28;20165;-65
2023/09/04 01:08:13;;;;;;;52.88;48.33;;;16.60;99.90;;;;;;5032393;28;20030;-65
2023/09/04 01:11:09;;;;;;;53.15;48.75;;;17.60;99.90;;;;;;5031472;28;20041;-65
2023/09/04 01:13:50;;;;;;;54.88;50.15;;;17.60;99.90;;;;;;5003852;28;20470;-64
2023/09/04 01:16:18;;;;;;;52.15;47.65;;;17.50;99.90;;;;;;5035537;28;20041;-65
2023/09/04 01:18:44;;;;;;;56.20;51.33;;;16.90;99.90;;;;;;5033756;28;20073;-65
2023/09/04 01:21:09;;;;;;;51.85;47.40;;;17.40;99.90;;;;;;5032178;28;20075;-63
2023/09/04 01:23:35;;;;;;;51.83;47.60;;;17.50;99.90;;;;;;5031148;28;20045;-64
2023/09/04 01:26:29;;;;;;;53.80;49.33;;;16.80;99.90;;;;;;5030161;28;20308;-63
2023/09/04 01:29:16;;;;;;;52.22;47.67;;;17.70;99.90;;;;;;5032521;28;20411;-64
2023/09/04 01:31:59;;;;;;;55.13;50.28;;;17.40;99.90;;;;;;5023788;28;20041;-63
2023/09/04 01:34:29;;;;;;;48.50;44.45;;;17.80;99.90;;;;;;5023844;28;20056;-64
2023/09/04 01:36:57;;;;;;;50.85;46.75;;;17.70;99.90;;;;;;5031642;28;20060;-64
2023/09/04 01:39:24;;;;;;;50.03;45.75;;;16.60;99.90;;;;;;5029773;28;20041;-63
2023/09/04 01:41:50;;;;;;;48.97;44.65;;;17.80;99.90;;;;;;5024510;28;20046;-64
2023/09/04 01:44:15;;;;;;;48.35;44.38;;;17.60;99.90;;;;;;5039118;28;20042;-64
2023/09/04 01:46:41;;;;;;;53.13;48.85;;;16.50;99.90;;;;;;5031588;28;20037;-63
2023/09/04 01:49:07;;;;;;;51.03;46.53;;;17.50;99.90;;;;;;5030717;28;20037;-64
2023/09/04 01:51:33;;;;;;;48.85;44.60;;;16.90;99.90;;;;;;5023740;28;20037;-63
2023/09/04 01:53:59;;;;;;;47.28;43.42;;;16.50;99.90;;;;;;5031941;28;20045;-63
2023/09/04 01:56:24;;;;;;;47.47;43.28;;;16.60;99.90;;;;;;5031048;28;20053;-64
2023/09/04 01:58:50;;;;;;;49.13;44.80;;;16.40;99.90;;;;;;5036457;28;20037;-63
2023/09/04 02:01:15;;;;;;;48.38;44.15;;;17.60;99.90;;;;;;5027045;28;20054;-64
2023/09/04 02:03:44;;;;;;;47.35;43.22;;;17.30;99.90;;;;;;5027424;28;20045;-63
2023/09/04 02:06:10;;;;;;;46.28;41.75;;;17.00;99.90;;;;;;5030106;28;20041;-63
2023/09/04 02:08:36;;;;;;;109.40;44.65;;;16.50;99.90;;;;;;5032753;28;20120;-64
2023/09/04 02:11:01;;;;;;;59.10;42.17;;;17.10;99.90;;;;;;5027066;28;20148;-64
2023/09/04 02:13:27;;;;;;;289.33;50.00;;;16.60;99.90;;;;;;5029005;28;20091;-64
2023/09/04 02:15:53;;;;;;;44.35;39.90;;;16.50;99.90;;;;;;5028551;28;20030;-64
2023/09/04 02:18:18;;;;;;;47.72;43.83;;;17.30;99.90;;;;;;5030974;28;20488;-64
2023/09/04 02:20:46;;;;;;;54.85;39.90;;;16.30;99.90;;;;;;5029782;28;20284;-64
2023/09/04 02:23:12;;;;;;;46.30;42.35;;;16.80;99.90;;;;;;5031339;28;20349;-63
2023/09/04 02:25:37;;;;;;;47.72;43.67;;;17.00;99.90;;;;;;5030967;28;20061;-64
2023/09/04 02:28:03;;;;;;;87.53;43.65;;;16.20;99.90;;;;;;5027294;28;20046;-64
2023/09/04 02:30:29;;;;;;;44.92;40.63;;;17.40;99.90;;;;;;5030787;28;20041;-63
2023/09/04 02:32:59;;;;;;;40.97;37.92;;;16.90;99.90;;;;;;5030425;28;20073;-63
2023/09/04 02:35:25;;;;;;;38.28;34.92;;;16.30;99.90;;;;;;5016159;28;20045;-62
2023/09/04 02:37:51;;;;;;;42.10;38.90;;;17.10;99.90;;;;;;5024841;28;20122;-61
2023/09/04 02:40:17;;;;;;;42.58;39.17;;;16.10;99.90;;;;;;5023874;28;20044;-62
2023/09/04 02:42:42;;;;;;;162.35;40.67;;;16.60;99.90;;;;;;5025784;28;20084;-61
2023/09/04 02:45:08;;;;;;;65.00;38.67;;;17.10;99.90;;;;;;5029352;28;20091;-61
2023/09/04 02:47:37;;;;;;;43.13;39.83;;;17.20;99.90;;;;;;5030752;28;20529;-62
2023/09/04 02:50:04;;;;;;;42.17;38.78;;;16.60;99.90;;;;;;5030710;28;20041;-61
2023/09/04 02:52:30;;;;;;;40.88;37.58;;;17.20;99.90;;;;;;5029503;28;20064;-60
2023/09/04 02:54:56;;;;;;;43.33;39.70;;;17.00;99.90;;;;;;5030546;28;20037;-61
2023/09/04 02:57:22;;;;;;;43.63;40.03;;;17.30;99.90;;;;;;5028911;28;20045;-62
2023/09/04 02:59:48;;;;;;;45.63;41.92;;;17.40;99.90;;;;;;5031618;28;20060;-62
2023/09/04 03:02:14;;;;;;;44.58;41.08;;;17.40;99.90;;;;;;5032009;28;20025;-62
2023/09/04 03:04:40;;;;;;;45.60;41.90;;;17.50;99.90;;;;;;5029179;28;20475;-62
2023/09/04 03:07:05;;;;;;;46.28;42.50;;;17.30;99.90;;;;;;5029828;28;20508;-62
2023/09/04 03:09:31;;;;;;;46.35;42.67;;;16.20;99.90;;;;;;5024886;28;20042;-62
2023/09/04 03:12:00;;;;;;;46.72;42.85;;;17.50;99.90;;;;;;5031236;28;20054;-61
2023/09/04 03:14:26;;;;;;;46.97;43.28;;;17.20;99.90;;;;;;5027826;28;20052;-62
2023/09/04 03:16:52;;;;;;;45.78;41.97;;;16.30;99.90;;;;;;5029037;28;20515;-61
2023/09/04 03:19:17;;;;;;;48.83;44.85;;;16.20;99.90;;;;;;5027297;28;20038;-62
2023/09/04 03:21:43;;;;;;;47.60;43.70;;;17.10;99.90;;;;;;5028857;28;20491;-61
2023/09/04 03:24:09;;;;;;;48.10;44.30;;;17.40;99.90;;;;;;5029170;28;20046;-62
2023/09/04 03:26:34;;;;;;;46.80;43.08;;;16.20;99.90;;;;;;5033117;28;20386;-61
2023/09/04 03:29:00;;;;;;;46.35;42.50;;;16.50;99.90;;;;;;5028536;28;20042;-62
2023/09/04 03:31:25;;;;;;;46.78;43.00;;;16.30;99.90;;;;;;5029037;28;20038;-62
2023/09/04 03:33:51;;;;;;;49.80;45.97;;;18.10;99.90;;;;;;5026790;28;20045;-61
2023/09/04 03:36:17;;;;;;;48.50;44.40;;;17.60;99.90;;;;;;5029167;28;20044;-62
2023/09/04 03:38:42;;;;;;;46.03;42.40;;;17.80;99.90;;;;;;5027772;28;20419;-62
2023/09/04 03:41:08;;;;;;;48.67;44.63;;;16.60;99.90;;;;;;5027845;28;20039;-63
2023/09/04 03:43:34;;;;;;;49.10;45.05;;;16.70;99.90;;;;;;5028608;28;20479;-63
2023/09/04 03:46:00;;;;;;;48.08;44.05;;;16.30;99.90;;;;;;5022765;28;20183;-63
2023/09/04 03:48:26;;;;;;;49.50;45.50;;;16.80;99.90;;;;;;5026166;28;20128;-63
2023/09/04 03:50:52;;;;;;;46.33;42.63;;;17.80;99.90;;;;;;5028834;28;20041;-63
2023/09/04 03:53:17;;;;;;;47.60;43.80;;;16.70;99.90;;;;;;5027188;28;20092;-63
2023/09/04 03:55:43;;;;;;;48.92;44.83;;;17.80;99.90;;;;;;5029869;28;20041;-63
2023/09/04 03:58:09;;;;;;;48.13;44.25;;;17.40;99.90;;;;;;5031873;28;20077;-63
2023/09/04 04:00:35;;;;;;;48.25;44.35;;;17.80;99.90;;;;;;4992166;28;1066000;-63
2023/09/04 04:03:00;;;;;;;46.92;43.13;;;17.60;99.90;;;;;;5028332;28;20041;-64
2023/09/04 04:05:26;;;;;;;50.78;46.38;;;17.50;99.90;;;;;;5029228;28;20124;-63
2023/09/04 04:07:52;;;;;;;48.63;44.78;;;16.40;99.90;;;;;;5029250;28;20034;-63
2023/09/04 04:10:18;;;;;;;49.17;45.28;;;17.80;99.90;;;;;;5029586;28;20056;-64
2023/09/04 04:12:44;;;;;;;49.40;45.40;;;17.60;99.90;;;;;;5026388;28;20079;-63
2023/09/04 04:15:11;;;;;;;50.58;46.40;;;17.50;99.90;;;;;;5025884;28;20052;-63
2023/09/04 04:17:37;;;;;;;50.67;46.28;;;17.60;99.90;;;;;;5026142;28;20122;-64
2023/09/04 04:20:09;;;;;;;49.47;45.17;;;16.70;99.90;;;;;;5029721;28;20041;-63
2023/09/04 04:22:35;;;;;;;51.47;46.90;;;16.40;99.90;;;;;;5029039;28;20037;-63
2023/09/04 04:25:00;;;;;;;50.35;45.88;;;18.00;99.90;;;;;;5029072;28;20048;-63
2023/09/04 04:27:26;;;;;;;49.35;45.10;;;17.60;99.90;;;;;;5028528;28;20029;-63
2023/09/04 04:29:54;;;;;;;48.30;44.25;;;17.50;99.90;;;;;;5035983;28;20041;-64
2023/09/04 04:32:20;;;;;;;48.55;44.53;;;17.60;99.90;;;;;;5029113;28;20038;-64
2023/09/04 04:34:45;;;;;;;50.28;45.63;;;16.60;99.90;;;;;;5024033;28;20057;-63
2023/09/04 04:37:11;;;;;;;47.67;43.60;;;17.30;99.90;;;;;;5027756;28;20095;-64
2023/09/04 04:39:37;;;;;;;48.10;43.92;;;17.40;99.90;;;;;;5029373;28;20040;-63
2023/09/04 04:42:03;;;;;;;49.70;45.30;;;16.00;99.90;;;;;;5032809;28;20037;-63
2023/09/04 04:44:28;;;;;;;48.63;44.53;;;16.90;99.90;;;;;;5026653;28;20099;-64
2023/09/04 04:46:54;;;;;;;47.13;43.13;;;16.00;99.90;;;;;;5027940;28;20045;-64
2023/09/04 04:49:21;;;;;;;45.83;41.60;;;16.10;99.90;;;;;;5029183;28;20083;-63
2023/09/04 04:51:47;;;;;;;48.30;44.35;;;17.30;99.90;;;;;;5028432;28;20124;-63
2023/09/04 04:54:13;;;;;;;48.42;44.17;;;16.80;99.90;;;;;;5022016;28;20129;-63
2023/09/04 04:56:41;;;;;;;47.88;43.72;;;16.50;99.90;;;;;;5028932;28;20041;-63
2023/09/04 04:59:09;;;;;;;47.35;43.08;;;16.70;99.90;;;;;;5029514;28;20046;-63
2023/09/04 05:01:35;;;;;;;50.00;45.67;;;16.00;99.90;;;;;;5032093;28;20065;-63
2023/09/04 05:04:01;;;;;;;52.58;48.13;;;17.00;99.90;;;;;;5028267;28;20593;-63
2023/09/04 05:06:26;;;;;;;53.17;48.80;;;17.30;99.90;;;;;;5031929;28;20060;-63
2023/09/04 05:08:52;;;;;;;50.10;46.00;;;17.50;99.90;;;;;;5026155;28;20502;-64
2023/09/04 05:11:18;;;;;;;50.72;46.65;;;16.80;99.90;;;;;;5028297;28;20073;-63
2023/09/04 05:13:43;;;;;;;50.38;46.08;;;16.10;99.90;;;;;;5030662;28;20072;-64
2023/09/04 05:16:09;;;;;;;51.53;47.35;;;17.50;99.90;;;;;;5029591;28;20368;-63
2023/09/04 05:18:35;;;;;;;50.17;46.05;;;17.60;99.90;;;;;;5031490;28;20095;-63
2023/09/04 05:21:03;;;;;;;48.83;44.72;;;17.60;99.90;;;;;;5031730;28;20033;-63
2023/09/04 05:23:29;;;;;;;52.28;48.05;;;17.40;99.90;;;;;;5032762;28;20515;-63
2023/09/04 05:25:54;;;;;;;49.90;45.80;;;16.10;99.90;;;;;;5032235;28;20037;-63
2023/09/04 05:28:20;;;;;;;50.72;46.72;;;17.50;99.90;;;;;;5032967;28;20036;-63
2023/09/04 05:30:46;;;;;;;49.15;45.08;;;17.30;99.90;;;;;;5025557;28;20042;-63
2023/09/04 05:33:12;;;;;;;53.13;48.58;;;16.30;99.90;;;;;;5024161;28;20140;-63
2023/09/04 05:35:37;;;;;;;51.25;47.05;;;17.50;99.90;;;;;;5030610;28;20446;-63
2023/09/04 05:38:03;;;;;;;51.08;46.70;;;16.30;99.90;;;;;;5026257;28;20041;-63
2023/09/04 05:40:29;;;;;;;50.22;46.13;;;17.60;99.90;;;;;;5030636;28;20128;-64
2023/09/04 05:42:55;;;;;;;53.25;48.72;;;17.20;99.90;;;;;;5027567;28;20084;-64
2023/09/04 05:45:21;;;;;;;51.83;47.63;;;17.50;99.90;;;;;;5028996;28;20033;-64
2023/09/04 05:47:46;;;;;;;51.15;46.95;;;16.30;99.90;;;;;;5019858;28;20033;-64
2023/09/04 05:50:13;;;;;;;50.38;46.28;;;17.70;99.90;;;;;;5030549;28;20488;-63
2023/09/04 05:52:38;;;;;;;48.80;44.60;;;16.70;99.90;;;;;;5027458;28;20049;-64
2023/09/04 05:55:04;;;;;;;51.38;47.10;;;16.60;99.90;;;;;;5029554;28;20116;-63
2023/09/04 05:57:30;;;;;;;50.60;46.40;;;16.60;99.90;;;;;;5028384;28;20091;-64
2023/09/04 05:59:55;;;;;;;51.67;47.28;;;16.90;99.90;;;;;;5027063;28;20121;-63
2023/09/04 06:02:21;;;;;;;47.42;43.42;;;17.90;99.90;;;;;;5005690;28;20073;-69
2023/09/04 06:04:47;;;;;;;50.17;46.10;;;16.40;99.90;;;;;;5041108;28;20480;-64
2023/09/04 06:07:14;;;;;;;51.00;46.58;;;18.00;99.90;;;;;;5024651;28;20099;-66
2023/09/04 06:09:40;;;;;;;54.00;49.63;;;16.60;99.90;;;;;;5025609;28;20053;-65
2023/09/04 06:12:08;;;;;;;49.53;45.00;;;18.00;99.90;;;;;;5026679;28;20045;-65
2023/09/04 06:14:34;;;;;;;52.45;47.85;;;17.70;99.90;;;;;;5021728;28;20049;-65
2023/09/04 06:17:00;;;;;;;51.45;47.03;;;16.90;99.90;;;;;;5019776;28;20482;-64
2023/09/04 06:19:25;;;;;;;52.40;48.00;;;16.90;99.90;;;;;;5024122;28;20044;-66
2023/09/04 06:21:51;;;;;;;51.90;47.35;;;17.00;99.90;;;;;;5029293;28;20092;-66
2023/09/04 06:24:17;;;;;;;51.25;46.83;;;18.30;99.90;;;;;;5027405;28;20048;-65
2023/09/04 06:26:42;;;;;;;56.10;51.50;;;18.50;99.90;;;;;;5024015;28;20037;-66
2023/09/04 06:29:08;;;;;;;53.40;48.67;;;17.30;99.90;;;;;;5024808;28;20048;-66
2023/09/04 06:31:33;;;;;;;52.40;47.80;;;18.60;99.90;;;;;;5027043;28;20048;-65
2023/09/04 06:33:59;;;;;;;50.50;46.15;;;18.60;99.90;;;;;;5025441;28;20072;-66
2023/09/04 06:36:25;;;;;;;52.25;47.85;;;18.30;99.90;;;;;;5025324;28;20073;-65
2023/09/04 06:38:50;;;;;;;52.35;48.00;;;17.70;99.90;;;;;;5026135;28;20041;-65
2023/09/04 06:41:16;;;;;;;50.50;46.30;;;18.00;99.90;;;;;;5027648;28;20029;-66
2023/09/04 06:43:41;;;;;;;52.75;48.25;;;18.40;99.90;;;;;;5027854;28;20091;-67
2023/09/04 06:46:07;;;;;;;52.88;48.28;;;19.20;99.90;;;;;;5028516;28;20041;-66
2023/09/04 06:48:32;;;;;;;52.08;47.70;;;18.30;99.90;;;;;;5028465;28;20111;-66
2023/09/04 06:51:00;;;;;;;51.15;46.90;;;18.20;99.90;;;;;;5030440;28;20422;-65
2023/09/04 06:53:26;;;;;;;50.40;46.08;;;18.60;99.90;;;;;;5028844;28;20041;-66
2023/09/04 06:55:52;;;;;;;46.67;42.78;;;18.60;99.90;;;;;;5026018;28;20048;-68
2023/09/04 06:58:17;;;;;;;46.70;42.58;;;19.40;99.90;;;;;;5021495;28;20120;-66
2023/09/04 07:00:43;;;;;;;45.40;41.60;;;19.70;99.90;;;;;;5023330;28;20132;-67
2023/09/04 07:03:08;;;;;;;46.45;42.65;;;19.10;99.90;;;;;;5021734;28;20111;-66
2023/09/04 07:05:34;;;;;;;44.95;41.35;;;19.40;99.90;;;;;;5027589;28;20127;-66
2023/09/04 07:07:59;;;;;;;41.83;38.10;;;19.80;99.90;;;;;;5021303;28;20044;-68
2023/09/04 07:10:25;;;;;;;42.08;38.58;;;19.80;99.90;;;;;;5027976;28;20720;-64
2023/09/04 07:12:51;;;;;;;41.55;38.00;;;20.00;99.90;;;;;;5027283;28;20376;-64
2023/09/04 07:15:17;;;;;;;40.75;37.25;;;20.20;99.90;;;;;;5028939;28;20403;-64
2023/09/04 07:17:42;;;;;;;38.60;35.28;;;19.60;99.90;;;;;;5024690;28;20042;-64
2023/09/04 07:20:10;;;;;;;42.10;38.45;;;19.80;99.90;;;;;;5019218;28;20054;-64
2023/09/04 07:22:36;;;;;;;38.10;33.92;;;20.50;99.90;;;;;;5039832;28;20091;-64
2023/09/04 07:25:03;;;;;;;41.08;37.55;;;20.60;99.90;;;;;;5023585;28;20034;-64
2023/09/04 07:27:29;;;;;;;38.13;35.03;;;20.60;99.90;;;;;;5021255;28;20064;-64
2023/09/04 07:29:55;;;;;;;40.38;36.97;;;20.50;99.90;;;;;;5025491;28;20060;-64
2023/09/04 07:32:21;;;;;;;38.65;35.30;;;20.70;99.90;;;;;;5021688;28;20131;-64
2023/09/04 07:34:47;;;;;;;39.15;35.88;;;20.60;99.90;;;;;;5026519;28;20043;-64
2023/09/04 07:37:12;;;;;;;38.58;35.38;;;20.70;99.90;;;;;;5024609;28;20036;-64
2023/09/04 07:39:39;;;;;;;36.97;34.03;;;21.40;99.90;;;;;;5024877;28;20543;-64
2023/09/04 07:42:05;;;;;;;37.03;34.03;;;21.60;99.90;;;;;;5026688;28;20549;-64
2023/09/04 07:44:31;;;;;;;32.20;29.50;;;21.20;99.90;;;;;;5023091;28;20077;-64
2023/09/04 07:46:57;;;;;;;30.08;27.70;;;21.40;99.90;;;;;;5023601;28;20042;-64
2023/09/04 07:49:23;;;;;;;22.27;20.58;;;21.80;99.90;;;;;;5024019;28;20103;-64
2023/09/04 07:51:49;;;;;;;23.77;21.50;;;22.20;99.90;;;;;;5022652;28;20049;-65
2023/09/04 07:54:14;;;;;;;21.73;19.95;;;22.70;99.90;;;;;;5026309;28;20049;-65
2023/09/04 07:56:40;;;;;;;20.33;18.63;;;23.10;99.90;;;;;;5024590;28;20136;-65
2023/09/04 07:59:05;;;;;;;19.35;17.85;;;23.50;99.90;;;;;;5024994;28;20088;-65
2023/09/04 08:01:32;;;;;;;19.90;18.40;;;23.90;99.90;;;;;;5024675;28;20500;-65
2023/09/04 08:04:00;;;;;;;17.13;15.70;;;24.30;99.90;;;;;;5025694;28;20045;-65
2023/09/04 08:06:26;;;;;;;20.13;18.48;;;24.60;99.90;;;;;;5023665;28;20042;-65
2023/09/04 08:08:52;;;;;;;18.67;17.23;;;24.70;99.90;;;;;;5022624;28;20060;-65
2023/09/04 08:11:18;;;;;;;20.52;18.83;;;24.80;99.90;;;;;;5025278;28;20094;-65
2023/09/04 08:13:43;;;;;;;19.98;18.15;;;24.70;99.90;;;;;;5022806;28;20042;-65
2023/09/04 08:16:09;;;;;;;21.00;19.33;;;24.70;99.90;;;;;;5022866;28;20042;-65
2023/09/04 08:18:35;;;;;;;19.13;17.63;;;24.90;1.00;;;;;;5023656;28;20038;-65
2023/09/04 08:21:00;;;;;;;20.20;18.60;;;25.00;99.90;;;;;;5019813;28;20048;-64
2023/09/04 08:23:26;;;;;;;18.67;17.08;;;25.40;99.90;;;;;;5021555;28;20025;-63
2023/09/04 08:26:02;;;;;;;19.67;18.10;;;25.40;99.90;;;;;;5026741;28;20049;-62
2023/09/04 08:28:28;;;;;;;19.60;18.00;;;25.70;11.90;;;;;;5024949;28;20430;-63
2023/09/04 08:30:54;;;;;;;20.42;18.83;;;25.60;99.90;;;;;;5023512;28;20049;-63
2023/09/04 08:33:20;;;;;;;16.17;14.88;;;25.80;99.90;;;;;;5022443;28;20088;-62
2023/09/04 08:35:45;;;;;;;16.52;15.15;;;26.00;1.00;;;;;;5026528;28;20450;-63
2023/09/04 08:38:11;;;;;;;19.33;17.63;;;26.10;99.90;;;;;;5028988;28;20041;-63
2023/09/04 08:40:40;;;;;;;17.60;16.30;;;26.20;85.30;;;;;;5025534;28;20041;-65
2023/09/04 08:43:07;;;;;;;16.40;15.10;;;26.30;9.50;;;;;;5024573;28;20042;-64
2023/09/04 08:45:35;;;;;;;16.17;14.93;;;26.30;1.00;;;;;;5029563;28;20041;-64
2023/09/04 08:48:03;;;;;;;14.93;13.73;;;26.40;99.90;;;;;;5027388;28;20041;-64
2023/09/04 08:50:29;;;;;;;14.93;13.57;;;26.70;99.90;;;;;;5026833;28;20095;-64
2023/09/04 08:52:55;;;;;;;16.33;14.73;;;26.60;99.90;;;;;;5026296;28;20418;-63
2023/09/04 08:55:21;;;;;;;15.18;14.00;;;26.60;99.90;;;;;;5030631;28;20099;-62
2023/09/04 08:57:47;;;;;;;16.90;15.50;;;26.70;93.90;;;;;;5029274;28;20558;-64
2023/09/04 09:00:14;;;;;;;13.93;12.82;;;26.80;43.70;;;;;;5024689;28;20156;-63
2023/09/04 09:02:42;;;;;;;23.40;21.40;;;26.80;1.00;;;;;;5026284;28;20124;-63
2023/09/04 09:05:09;;;;;;;27.95;25.85;;;27.00;1.00;;;;;;5026588;28;20045;-66
2023/09/04 09:07:37;;;;;;;54.55;49.92;;;27.50;1.00;;;;;;5038147;28;20059;-64
2023/09/04 09:10:04;;;;;;;57.45;52.72;;;27.10;1.00;;;;;;5026581;28;20045;-66
2023/09/04 09:12:30;;;;;;;67.88;62.38;;;27.10;1.00;;;;;;5030143;28;20049;-67
2023/09/04 09:14:59;;;;;;;76.78;70.78;;;27.20;1.00;;;;;;5026715;28;20030;-67
2023/09/04 09:17:25;;;;;;;106.40;98.00;;;27.30;1.00;;;;;;5025893;28;20411;-67
2023/09/04 09:19:51;;;;;;;100.88;93.38;;;27.60;1.00;;;;;;5028260;28;20045;-66
2023/09/04 09:22:18;;;;;;;94.97;87.70;;;27.70;1.00;;;;;;5028854;28;20030;-67
2023/09/04 09:24:54;;;;;;;112.05;103.13;;;27.80;1.00;;;;;;5026157;28;20033;-67
2023/09/04 09:27:21;;;;;;;;;;;27.80;99.90;;;;;;5028276;28;20052;-67
2023/09/04 09:29:47;;;;;;;72.20;67.30;;;27.70;99.90;;;;;;5024084;28;20663;-67
2023/09/04 09:32:16;;;;;;;45.05;41.88;;;27.80;99.90;;;;;;5025072;28;20682;-67
2023/09/04 09:34:48;;;;;;;6.40;3.95;;;27.80;99.90;;;;;;5026652;28;20044;-68
2023/09/04 09:37:13;;;;;;;5.13;3.78;;;27.80;99.90;;;;;;5028141;28;20045;-67
2023/09/04 09:39:39;;;;;;;6.32;4.45;;;27.80;99.90;;;;;;5025540;28;20068;-67
2023/09/04 09:42:05;;;;;;;4.43;3.40;;;27.80;99.90;;;;;;5028101;28;20045;-67
2023/09/04 09:44:34;;;;;;;3.85;3.35;;;27.90;99.90;;;;;;5028495;28;20037;-68
2023/09/04 09:46:59;;;;;;;4.95;3.05;;;27.80;99.90;;;;;;5025295;28;21392;-67
2023/09/04 09:49:26;;;;;;;4.65;3.15;;;27.80;99.90;;;;;;5025839;28;20039;-67
2023/09/04 09:51:53;;;;;;;6.50;3.03;;;27.80;99.90;;;;;;5026143;28;20041;-66
2023/09/04 09:54:38;;;;;;;4.10;2.80;;;27.80;99.90;;;;;;5026374;28;20430;-67
2023/09/04 09:57:08;;;;;;;3.67;3.00;;;27.80;99.90;;;;;;5025803;28;20574;-67
2023/09/04 09:59:36;;;;;;;4.18;2.95;;;27.60;99.90;;;;;;5025035;28;20048;-67
2023/09/04 10:02:03;;;;;;;5.43;3.00;;;27.30;99.90;;;;;;5025970;28;20041;-67
2023/09/04 10:04:31;;;;;;;5.00;2.97;;;27.10;99.90;;;;;;5026681;28;20093;-68
2023/09/04 10:06:59;;;;;;;3.42;2.67;;;26.90;99.90;;;;;;5026103;28;20442;-67
2023/09/04 10:09:27;;;;;;;2.92;2.50;;;26.70;99.90;;;;;;5024546;28;20140;-68
2023/09/04 10:12:21;;;;;;;3.63;2.58;;;26.70;99.90;;;;;;5026210;28;20041;-67
2023/09/04 10:14:49;;;;;;;5.72;2.90;;;26.70;99.90;;;;;;5016985;28;20087;-68
2023/09/04 10:17:18;;;;;;;4.35;3.28;;;26.60;99.90;;;;;;5021678;28;20033;-66
2023/09/04 10:19:46;;;;;;;5.03;2.80;;;26.30;99.90;;;;;;5019898;28;20520;-66
2023/09/04 10:22:20;;;;;;;3.80;2.55;;;26.50;99.90;;;;;;5021721;28;20157;-67
2023/09/04 10:24:56;;;;;;;4.45;2.80;;;26.40;99.90;;;;;;5028685;28;20458;-67
2023/09/04 10:27:25;;;;;;;4.45;3.10;;;25.90;99.90;;;;;;5018583;28;20115;-67
2023/09/04 10:29:58;;;;;;;4.80;3.05;;;26.50;99.90;;;;;;5024646;28;20507;-68
2023/09/04 10:32:25;;;;;;;4.03;2.90;;;26.50;99.90;;;;;;5037777;28;20053;-67
2023/09/04 10:34:51;;;;;;;5.13;2.95;;;26.50;99.90;;;;;;5024282;28;20045;-66
2023/09/04 10:37:17;;;;;;;4.13;3.13;;;26.40;99.90;;;;;;5023775;28;20730;-65
2023/09/04 10:39:43;;;;;;;4.75;3.28;;;26.50;99.90;;;;;;5024341;28;20045;-67
2023/09/04 10:42:11;;;;;;;3.42;2.95;;;26.50;99.90;;;;;;5024505;28;20041;-66
2023/09/04 10:44:51;;;;;;;5.55;3.00;;;26.50;99.90;;;;;;5021083;28;20047;-66
2023/09/04 10:47:18;;;;;;;4.25;2.92;;;26.60;99.90;;;;;;5028135;28;20087;-67
2023/09/04 10:49:44;;;;;;;5.63;3.67;;;26.60;99.90;;;;;;5024738;28;20041;-66
2023/09/04 10:52:11;;;;;;;4.63;3.33;;;26.60;99.90;;;;;;5024443;28;20033;-68
2023/09/04 10:54:37;;;;;;;4.68;3.03;;;26.70;99.90;;;;;;5024188;28;20045;-67
2023/09/04 10:57:11;;;;;;;3.92;3.08;;;26.70;99.90;;;;;;5023674;28;20032;-67
2023/09/04 10:59:55;;;;;;;5.00;2.55;;;26.70;99.90;;;;;;5022707;28;20041;-67
2023/09/04 11:02:31;;;;;;;4.70;3.40;;;26.80;99.90;;;;;;5022825;28;20484;-65
2023/09/04 11:04:59;;;;;;;6.93;3.50;;;27.00;99.90;;;;;;5023283;28;20072;-69
2023/09/04 11:07:27;;;;;;;3.40;3.10;;;27.10;99.90;;;;;;5027254;28;20155;-66
2023/09/04 11:10:06;;;;;;;5.53;3.28;;;27.10;99.90;;;;;;5028005;28;20060;-66
2023/09/04 11:12:35;;;;;;;8.35;3.33;;;27.10;99.90;;;;;;5025562;28;20088;-65
2023/09/04 11:15:01;;;;;;;6.05;2.60;;;27.20;99.90;;;;;;5026496;28;20029;-65
2023/09/04 11:17:31;;;;;;;3.25;2.65;;;27.10;99.90;;;;;;5027138;28;20038;-66
2023/09/04 11:19:58;;;;;;;6.50;3.10;;;26.90;99.90;;;;;;5024026;28;20060;-66
2023/09/04 11:22:24;;;;;;;3.97;2.70;;;26.80;99.90;;;;;;5026577;28;20037;-66
2023/09/04 11:24:53;;;;;;;4.22;2.72;;;26.80;99.90;;;;;;5022127;28;20030;-66
2023/09/04 11:27:22;;;;;;;4.97;2.80;;;26.70;99.90;;;;;;5029446;28;20041;-66
2023/09/04 11:29:48;;;;;;;3.92;2.80;;;26.70;99.90;;;;;;5029817;28;20781;-69
2023/09/04 11:32:15;;;;;;;4.60;2.90;;;26.80;99.90;;;;;;5028705;28;20294;-69
2023/09/04 11:34:45;;;;;;;5.55;2.90;;;26.90;99.90;;;;;;5029308;28;20033;-69
2023/09/04 11:37:14;;;;;;;5.28;3.00;;;26.80;99.90;;;;;;5028003;28;20049;-69
2023/09/04 11:39:57;;;;;;;4.53;2.90;;;26.80;99.90;;;;;;5027348;28;20045;-69
2023/09/04 11:42:24;;;;;;;5.82;2.80;;;26.80;99.90;;;;;;5039403;28;20041;-70
2023/09/04 11:44:50;;;;;;;4.13;3.40;;;26.80;99.90;;;;;;5028604;28;20053;-68
2023/09/04 11:47:16;;;;;;;5.53;3.10;;;26.70;99.90;;;;;;5026744;28;21646;-70
2023/09/04 11:49:42;;;;;;;6.45;3.13;;;26.70;99.90;;;;;;5028115;28;20448;-67
2023/09/04 11:52:09;;;;;;;4.95;3.50;;;26.80;99.90;;;;;;5027580;28;20087;-69
2023/09/04 11:54:38;;;;;;;4.60;3.28;;;26.80;99.90;;;;;;5028028;28;20476;-69
2023/09/04 11:57:04;;;;;;;4.50;2.72;;;26.80;99.90;;;;;;5022933;28;20048;-69
2023/09/04 11:59:34;;;;;;;3.55;2.72;;;26.70;99.90;;;;;;5027763;28;20041;-69
2023/09/04 12:02:07;;;;;;;4.18;3.10;;;26.70;99.90;;;;;;5026254;28;20587;-67
2023/09/04 12:04:34;;;;;;;5.82;3.67;;;26.70;99.90;;;;;;5027666;28;20496;-67
2023/09/04 12:07:04;;;;;;;4.10;3.13;;;26.60;99.90;;;;;;5027084;28;20072;-65
2023/09/04 12:09:30;;;;;;;4.63;2.80;;;26.60;99.90;;;;;;5027916;28;20544;-64
2023/09/04 12:11:56;;;;;;;4.95;3.28;;;26.80;99.90;;;;;;5032390;28;20064;-66
2023/09/04 12:14:22;;;;;;;4.95;3.10;;;27.00;99.90;;;;;;5034274;28;20041;-65
2023/09/04 12:16:48;;;;;;;4.88;3.00;;;26.70;99.90;;;;;;5032834;28;20037;-65
2023/09/04 12:19:17;;;;;;;5.28;3.17;;;26.70;99.90;;;;;;5033602;28;20608;-66
2023/09/04 12:21:43;;;;;;;3.28;2.83;;;26.70;99.90;;;;;;5030090;28;20407;-67
2023/09/04 12:24:14;;;;;;;5.65;3.42;;;26.70;99.90;;;;;;5033093;28;20032;-66
2023/09/04 12:26:40;;;;;;;5.07;3.05;;;26.80;99.90;;;;;;5029470;28;20139;-66
2023/09/04 12:29:12;;;;;;;6.18;3.05;;;27.00;99.90;;;;;;5029606;28;20656;-67
2023/09/04 12:31:38;;;;;;;4.03;2.42;;;26.80;99.90;;;;;;5029973;28;20091;-67